Time;durP1;ratioP1;P1;durP2;ratioP2;P2;SDS_P1;SDS_P2;PMS_P1;PMS_P2;Temp;Humidity;BMP_temperature;BMP_pressure;BME280_temperature;BME280_humidity;BME280_pressure;Samples;Min_cycle;Max_cycle;Signal;HPM_P1;HPM_P2
2022/10/09 00:06:44;;;;;;;7.60;6.80;;;;;11.40;99745.00;;;;16457296;28;20223;-48
2022/10/09 00:14:46;;;;;;;5.97;5.47;;;;;11.50;99735.00;;;;16454707;28;20216;-48
2022/10/09 00:22:50;;;;;;;8.33;7.37;;;;;11.40;99738.00;;;;16456853;28;20232;-48
2022/10/09 00:30:52;;;;;;;7.73;6.93;;;;;11.40;99736.00;;;;16438584;28;20229;-49
2022/10/09 00:38:56;;;;;;;14.50;6.47;;;;;11.70;99722.00;;;;16448506;28;20239;-48
2022/10/09 00:46:59;;;;;;;7.53;6.30;;;;;11.60;99719.00;;;;16452708;28;20223;-49
2022/10/09 00:55:05;;;;;;;8.97;8.07;;;;;10.90;99726.00;;;;16449715;28;20221;-48
2022/10/09 01:03:07;;;;;;;8.20;7.40;;;;;10.70;99715.00;;;;16451421;28;20252;-48
2022/10/09 01:11:19;;;;;;;7.63;6.70;;;;;10.40;99717.00;;;;16451414;28;22430;-48
2022/10/09 01:19:31;;;;;;;7.77;6.20;;;;;10.70;99707.00;;;;16467139;28;20315;-48
2022/10/09 01:27:36;;;;;;;11.47;8.70;;;;;10.50;99702.00;;;;16458371;28;20231;-48
2022/10/09 01:35:39;;;;;;;9.03;7.17;;;;;10.30;99698.00;;;;16465804;28;20235;-48
2022/10/09 01:43:43;;;;;;;9.03;6.90;;;;;11.10;99687.00;;;;16461545;28;20799;-47
2022/10/09 01:51:49;;;;;;;7.30;6.43;;;;;10.50;99674.00;;;;16464658;28;20220;-48
2022/10/09 01:59:54;;;;;;;7.37;6.67;;;;;10.40;99674.00;;;;16462379;28;20236;-48
2022/10/09 02:07:57;;;;;;;7.10;5.50;;;;;10.20;99670.00;;;;16462179;28;20228;-48
2022/10/09 02:16:04;;;;;;;6.37;5.70;;;;;10.10;99664.00;;;;16465380;28;20720;-48
2022/10/09 02:24:08;;;;;;;11.50;7.13;;;;;10.30;99645.00;;;;16462682;28;20238;-48
2022/10/09 02:32:13;;;;;;;9.80;7.03;;;;;9.80;99653.00;;;;16460410;28;20221;-48
2022/10/09 02:40:16;;;;;;;7.50;6.80;;;;;9.70;99654.00;;;;16466413;28;20223;-48
2022/10/09 02:48:20;;;;;;;7.23;6.60;;;;;10.20;99644.00;;;;16457716;28;20255;-48
2022/10/09 02:56:23;;;;;;;7.63;6.87;;;;;10.10;99638.00;;;;16458015;28;20207;-48
2022/10/09 03:04:26;;;;;;;6.37;5.67;;;;;9.90;99635.00;;;;16459635;28;20241;-48
2022/10/09 03:12:29;;;;;;;9.07;6.27;;;;;9.80;99631.00;;;;16459722;28;20222;-47
2022/10/09 03:20:33;;;;;;;7.13;6.40;;;;;10.00;99629.00;;;;16467478;28;20239;-48
2022/10/09 03:28:36;;;;;;;10.23;5.80;;;;;9.50;99641.00;;;;16458107;28;20252;-48
2022/10/09 03:36:41;;;;;;;9.93;6.00;;;;;9.40;99638.00;;;;16463150;28;20192;-48
2022/10/09 03:44:43;;;;;;;7.17;6.47;;;;;9.40;99634.00;;;;16452307;28;20340;-48
2022/10/09 03:52:47;;;;;;;14.30;5.20;;;;;9.80;99632.00;;;;16455468;28;20219;-48
2022/10/09 04:00:50;;;;;;;8.43;5.30;;;;;9.30;99633.00;;;;16453024;28;20227;-48
2022/10/09 04:08:55;;;;;;;6.20;4.90;;;;;9.10;99646.00;;;;16458382;28;20232;-48
2022/10/09 04:16:57;;;;;;;5.57;4.90;;;;;8.80;99636.00;;;;16497562;23;20321;-48
2022/10/09 04:25:01;;;;;;;5.70;5.10;;;;;8.70;99635.00;;;;16516041;28;20797;-48
2022/10/09 04:33:04;;;;;;;8.90;5.50;;;;;8.60;99636.00;;;;16516794;28;20308;-48
2022/10/09 04:41:08;;;;;;;7.50;5.17;;;;;8.90;99643.00;;;;16514697;28;20228;-49
2022/10/09 04:49:12;;;;;;;7.40;5.10;;;;;8.60;99636.00;;;;16516293;28;20223;-49
2022/10/09 04:57:16;;;;;;;8.40;6.43;;;;;8.60;99628.00;;;;16524697;28;20232;-49
2022/10/09 05:05:18;;;;;;;9.60;7.30;;;;;8.70;99626.00;;;;16524190;28;20278;-48
2022/10/09 05:13:22;;;;;;;7.17;6.50;;;;;8.70;99620.00;;;;16511776;28;20811;-48
2022/10/09 05:21:25;;;;;;;9.27;5.20;;;;;8.60;99631.00;;;;16499978;28;20314;-49
2022/10/09 05:29:29;;;;;;;6.03;5.30;;;;;8.60;99629.00;;;;16492362;28;20699;-48
2022/10/09 05:37:31;;;;;;;6.93;6.43;;;;;8.60;99632.00;;;;16523425;28;20834;-48
2022/10/09 05:45:35;;;;;;;10.80;6.60;;;;;8.60;99636.00;;;;16517333;28;20276;-48
2022/10/09 05:53:38;;;;;;;9.47;6.70;;;;;8.50;99630.00;;;;16501912;28;20594;-48
2022/10/09 06:01:45;;;;;;;9.13;6.70;;;;;8.80;99626.00;;;;16518014;28;20220;-48
2022/10/09 06:09:47;;;;;;;6.40;5.90;;;;;8.60;99628.00;;;;16515750;28;20215;-48
2022/10/09 06:17:51;;;;;;;6.10;5.50;;;;;8.60;99624.00;;;;16510048;28;20312;-47
2022/10/09 06:25:54;;;;;;;9.20;5.77;;;;;8.90;99626.00;;;;16512060;28;20313;-48
2022/10/09 06:33:59;;;;;;;8.33;6.80;;;;;9.10;99625.00;;;;16501824;28;20601;-48
2022/10/09 06:42:02;;;;;;;7.57;5.67;;;;;9.60;99628.00;;;;16506887;28;20330;-48
2022/10/09 06:50:15;;;;;;;8.13;5.97;;;;;10.10;99625.00;;;;16510570;28;20730;-48
2022/10/09 06:58:18;;;;;;;10.87;7.40;;;;;10.60;99623.00;;;;16494430;28;21918;-48
2022/10/09 07:06:23;;;;;;;8.80;7.90;;;;;10.70;99624.00;;;;16499768;28;20231;-48
2022/10/09 07:14:25;;;;;;;8.80;7.77;;;;;11.40;99607.00;;;;16499743;28;20747;-48
2022/10/09 07:22:29;;;;;;;7.87;7.20;;;;;11.00;99609.00;;;;16492077;28;20208;-48
2022/10/09 07:30:32;;;;;;;8.77;7.57;;;;;11.90;99608.00;;;;16498498;28;20224;-48
2022/10/09 07:38:36;;;;;;;9.60;8.60;;;;;12.50;99607.00;;;;16510477;28;20359;-49
2022/10/09 07:46:38;;;;;;;8.57;7.67;;;;;13.30;99594.00;;;;16503960;28;20274;-48
2022/10/09 07:54:42;;;;;;;10.70;7.80;;;;;14.00;99587.00;;;;16490714;28;20586;-48
2022/10/09 08:02:45;;;;;;;9.07;7.60;;;;;13.50;99580.00;;;;16512893;28;20238;-49
2022/10/09 08:10:48;;;;;;;8.47;7.67;;;;;14.20;99573.00;;;;16515170;28;20220;-48
2022/10/09 08:18:55;;;;;;;10.13;7.27;;;;;14.50;99572.00;;;;16510816;28;20777;-48
2022/10/09 08:26:58;;;;;;;8.70;7.03;;;;;14.40;99568.00;;;;16502065;28;20238;-49
2022/10/09 08:35:01;;;;;;;8.73;6.60;;;;;15.40;99561.00;;;;16510908;28;20231;-49
2022/10/09 08:43:06;;;;;;;8.77;6.30;;;;;15.80;99531.00;;;;16514716;28;20254;-48
2022/10/09 08:51:15;;;;;;;8.07;6.87;;;;;16.20;99533.00;;;;16513379;28;20825;-49
2022/10/09 08:59:19;;;;;;;5.63;5.07;;;;;16.20;99535.00;;;;16510109;28;20223;-49
2022/10/09 09:07:28;;;;;;;6.80;5.50;;;;;17.60;99512.00;;;;16513894;28;20230;-49
2022/10/09 09:15:43;;;;;;;3.40;2.30;;;;;17.90;99500.00;;;;16514623;28;20224;-48
2022/10/09 09:23:48;;;;;;;3.20;2.90;;;;;18.80;99483.00;;;;16504528;28;20235;-49
2022/10/09 09:31:56;;;;;;;5.03;3.10;;;;;18.70;99475.00;;;;16502284;28;20212;-49
2022/10/09 09:39:59;;;;;;;4.20;2.60;;;;;18.80;99468.00;;;;16520166;28;20220;-48
2022/10/09 09:48:06;;;;;;;3.60;2.37;;;;;19.90;99445.00;;;;16499944;28;20231;-49
2022/10/09 09:56:09;;;;;;;5.17;2.10;;;;;20.90;99441.00;;;;16481769;28;20224;-49
2022/10/09 10:04:20;;;;;;;2.13;1.60;;;;;20.60;99437.00;;;;16492128;28;20291;-49
2022/10/09 10:12:23;;;;;;;4.53;2.20;;;;;21.30;99425.00;;;;16494489;28;20295;-49
2022/10/09 10:20:27;;;;;;;3.33;2.23;;;;;21.00;99420.00;;;;16493341;28;20232;-48
2022/10/09 10:28:35;;;;;;;2.33;1.80;;;;;20.60;99414.00;;;;16488033;28;20228;-48
2022/10/09 10:36:39;;;;;;;2.43;1.80;;;;;20.90;99401.00;;;;16494892;28;20235;-48
2022/10/09 10:44:47;;;;;;;3.73;1.80;;;;;21.10;99393.00;;;;16490301;28;20310;-49
2022/10/09 10:53:16;;;;;;;3.67;1.90;;;;;20.50;99397.00;;;;16491030;28;20203;-48
2022/10/09 11:01:29;;;;;;;3.77;1.90;;;;;21.40;99379.00;;;;16476720;28;20211;-49
2022/10/09 11:09:42;;;;;;;3.13;2.60;;;;;21.90;99391.00;;;;16480450;28;20228;-48
2022/10/09 11:17:49;;;;;;;2.37;2.10;;;;;21.70;99381.00;;;;16476825;28;20232;-49
2022/10/09 11:25:58;;;;;;;4.43;2.33;;;;;21.70;99359.00;;;;16491125;28;20227;-48
2022/10/09 11:34:04;;;;;;;2.10;1.87;;;;;21.30;99345.00;;;;16497108;28;20234;-49
2022/10/09 11:42:10;;;;;;;3.93;1.40;;;;;21.80;99330.00;;;;16513730;23;20232;-48
2022/10/09 11:50:22;;;;;;;6.33;2.07;;;;;22.50;99326.00;;;;16501421;28;20302;-50
2022/10/09 11:58:28;;;;;;;1.97;1.40;;;;;23.00;99318.00;;;;16505335;28;20216;-50
2022/10/09 12:06:31;;;;;;;2.30;1.77;;;;;22.60;99297.00;;;;16513842;28;20305;-49
2022/10/09 12:14:37;;;;;;;2.23;1.40;;;;;22.30;99295.00;;;;16513428;28;20220;-49
2022/10/09 12:22:42;;;;;;;5.23;1.67;;;;;22.40;99286.00;;;;16513096;28;20243;-50
2022/10/09 12:30:48;;;;;;;2.13;1.57;;;;;22.90;99279.00;;;;16512230;28;20251;-49
2022/10/09 12:38:51;;;;;;;2.73;1.40;;;;;23.20;99260.00;;;;16512477;28;20219;-49
2022/10/09 12:46:55;;;;;;;3.07;1.60;;;;;22.80;99249.00;;;;16510371;28;20318;-49
2022/10/09 12:54:57;;;;;;;2.90;1.43;;;;;23.00;99238.00;;;;16514231;28;20230;-49
2022/10/09 13:03:01;;;;;;;3.73;2.00;;;;;23.70;99226.00;;;;16509214;28;20215;-49
2022/10/09 13:11:11;;;;;;;3.27;2.00;;;;;24.50;99224.00;;;;16511989;28;20722;-49
2022/10/09 13:19:24;;;;;;;6.37;1.40;;;;;25.60;99211.00;;;;16521114;28;20193;-49
2022/10/09 13:27:28;;;;;;;4.70;1.80;;;;;25.30;99207.00;;;;16519111;28;20227;-50
2022/10/09 13:35:32;;;;;;;1.60;1.50;;;;;23.60;99196.00;;;;16519265;28;20223;-50
2022/10/09 13:43:34;;;;;;;3.10;1.70;;;;;24.10;99193.00;;;;16514154;28;20227;-50
2022/10/09 13:51:38;;;;;;;3.70;2.10;;;;;23.50;99181.00;;;;16515986;28;20224;-49
2022/10/09 13:59:40;;;;;;;5.10;4.57;;;;;22.10;99170.00;;;;16514434;28;20751;-49
2022/10/09 14:07:44;;;;;;;2.87;1.80;;;;;21.80;99162.00;;;;16519240;28;20737;-48
2022/10/09 14:15:47;;;;;;;4.07;2.27;;;;;22.10;99156.00;;;;16515465;28;20224;-48
2022/10/09 14:23:54;;;;;;;4.43;2.47;;;;;21.40;99147.00;;;;16517829;28;20789;-49
2022/10/09 14:31:56;;;;;;;6.03;2.30;;;;;21.30;99137.00;;;;16514989;28;20274;-49
2022/10/09 14:40:00;;;;;;;2.50;2.30;;;;;21.90;99133.00;;;;16517801;28;20228;-49
2022/10/09 14:48:03;;;;;;;4.30;2.10;;;;;22.60;99129.00;;;;16520742;28;21275;-49
2022/10/09 14:56:09;;;;;;;2.50;2.20;;;;;23.40;99111.00;;;;16518437;28;20250;-50
2022/10/09 15:04:13;;;;;;;3.30;2.13;;;;;23.60;99101.00;;;;16514335;28;20222;-50
2022/10/09 15:12:17;;;;;;;4.73;2.80;;;;;23.10;99091.00;;;;16517164;28;20602;-49
2022/10/09 15:20:19;;;;;;;4.57;2.50;;;;;22.90;99098.00;;;;16518274;28;20719;-50
2022/10/09 15:28:23;;;;;;;3.80;3.43;;;;;22.30;99088.00;;;;16515185;28;20734;-49
2022/10/09 15:36:26;;;;;;;3.20;2.80;;;;;22.50;99085.00;;;;16509501;28;20216;-50
2022/10/09 15:44:30;;;;;;;3.40;3.10;;;;;22.80;99083.00;;;;16514649;28;20586;-50
2022/10/09 15:52:32;;;;;;;5.00;3.40;;;;;22.00;99066.00;;;;16512079;28;20227;-49
2022/10/09 16:00:37;;;;;;;5.60;3.00;;;;;22.60;99063.00;;;;16515438;28;20248;-50
2022/10/09 16:08:40;;;;;;;4.77;3.70;;;;;22.10;99065.00;;;;16513569;28;20319;-49
2022/10/09 16:16:47;;;;;;;4.93;3.97;;;;;20.10;99068.00;;;;16513962;28;20231;-48
2022/10/09 16:24:49;;;;;;;3.77;3.43;;;;;19.50;99071.00;;;;16523296;28;20246;-49
2022/10/09 16:32:53;;;;;;;8.67;5.57;;;;;19.40;99057.00;;;;16510300;28;20228;-49
2022/10/09 16:40:55;;;;;;;4.67;4.27;;;;;19.70;99066.00;;;;16508384;28;20242;-49
2022/10/09 16:49:01;;;;;;;5.70;4.47;;;;;19.30;99063.00;;;;16519871;28;20362;-49
2022/10/09 16:57:03;;;;;;;5.30;4.53;;;;;18.50;99072.00;;;;16526179;28;20234;-49
2022/10/09 17:05:08;;;;;;;4.87;4.37;;;;;19.30;99072.00;;;;16524202;28;20318;-50
2022/10/09 17:13:11;;;;;;;9.27;7.83;;;;;18.00;99088.00;;;;16523421;28;20670;-50
2022/10/09 17:21:16;;;;;;;8.43;6.23;;;;;16.40;99097.00;;;;16522391;28;20227;-49
2022/10/09 17:29:18;;;;;;;6.90;5.83;;;;;15.60;99100.00;;;;16520448;28;20227;-49
2022/10/09 17:37:22;;;;;;;8.27;5.40;;;;;15.10;99108.00;;;;16520781;28;20660;-50
2022/10/09 17:45:25;;;;;;;7.80;6.13;;;;;14.70;99113.00;;;;16520720;28;20244;-49
2022/10/09 17:53:29;;;;;;;7.50;6.13;;;;;14.30;99114.00;;;;16520728;28;20839;-50
2022/10/09 18:01:32;;;;;;;10.53;9.50;;;;;14.50;99109.00;;;;16514938;28;20220;-49
2022/10/09 18:09:36;;;;;;;14.23;9.03;;;;;14.10;99101.00;;;;16507841;28;20241;-50
2022/10/09 18:17:38;;;;;;;9.87;8.67;;;;;14.10;99113.00;;;;16516581;28;20690;-50
2022/10/09 18:25:43;;;;;;;7.30;6.60;;;;;14.10;99097.00;;;;16517979;28;20623;-50
2022/10/09 18:33:46;;;;;;;8.60;7.23;;;;;14.00;99092.00;;;;16514500;28;20737;-49
2022/10/09 18:41:49;;;;;;;7.97;7.27;;;;;13.80;99097.00;;;;16513996;28;20297;-49
2022/10/09 18:49:53;;;;;;;8.83;6.97;;;;;13.60;99087.00;;;;16508558;28;20235;-49
2022/10/09 18:57:58;;;;;;;7.43;6.53;;;;;13.50;99086.00;;;;16521746;28;20231;-49
2022/10/09 19:06:00;;;;;;;7.80;6.67;;;;;13.40;99088.00;;;;16518887;28;20367;-49
2022/10/09 19:14:04;;;;;;;7.83;6.57;;;;;13.40;99082.00;;;;16517396;28;20208;-49
2022/10/09 19:22:08;;;;;;;7.10;6.50;;;;;13.30;99080.00;;;;16520970;28;20238;-50
2022/10/09 19:30:13;;;;;;;6.93;6.33;;;;;13.20;99078.00;;;;16516828;28;20354;-50
2022/10/09 19:38:16;;;;;;;7.53;6.47;;;;;13.10;99074.00;;;;16517881;28;20260;-50
2022/10/09 19:46:21;;;;;;;6.37;5.87;;;;;13.40;99067.00;;;;16516656;28;20234;-50
2022/10/09 19:54:23;;;;;;;8.90;8.00;;;;;13.20;99068.00;;;;16518203;28;20244;-49
2022/10/09 20:02:27;;;;;;;7.93;7.13;;;;;13.10;99075.00;;;;16518329;28;20309;-49
2022/10/09 20:10:30;;;;;;;7.77;6.97;;;;;12.80;99073.00;;;;16513419;28;20920;-48
2022/10/09 20:18:34;;;;;;;7.20;6.50;;;;;13.10;99073.00;;;;16502187;28;20233;-49
2022/10/09 20:26:36;;;;;;;8.77;7.07;;;;;13.40;99065.00;;;;16508188;28;20599;-49
2022/10/09 20:34:40;;;;;;;22.60;12.40;;;;;13.30;99065.00;;;;16508675;28;20228;-50
2022/10/09 20:42:43;;;;;;;9.83;7.50;;;;;13.60;99052.00;;;;16511384;28;20247;-49
2022/10/09 20:50:46;;;;;;;6.30;5.70;;;;;14.00;99055.00;;;;16514024;28;20251;-50
2022/10/09 20:58:49;;;;;;;7.70;6.20;;;;;13.90;99050.00;;;;16504963;28;20237;-50
2022/10/09 21:06:53;;;;;;;9.47;6.63;;;;;14.50;99042.00;;;;16512551;28;20312;-50
2022/10/09 21:14:55;;;;;;;8.63;6.53;;;;;14.60;99040.00;;;;16498425;28;20226;-50
2022/10/09 21:22:59;;;;;;;6.07;5.50;;;;;14.60;99039.00;;;;16505700;28;20314;-50
2022/10/09 21:31:04;;;;;;;6.93;5.83;;;;;14.40;99043.00;;;;16513390;28;20237;-49
2022/10/09 21:39:09;;;;;;;16.47;11.37;;;;;15.30;99037.00;;;;16522588;28;20200;-50
2022/10/09 21:47:16;;;;;;;8.27;7.10;;;;;15.60;99030.00;;;;16519164;28;20232;-50
2022/10/09 21:55:20;;;;;;;9.00;6.70;;;;;15.70;99024.00;;;;16516268;28;20243;-50
2022/10/09 22:03:25;;;;;;;7.40;6.40;;;;;15.60;99023.00;;;;16524051;28;20231;-50
2022/10/09 22:11:29;;;;;;;7.00;6.27;;;;;15.50;99020.00;;;;16523289;28;20230;-50
2022/10/09 22:19:31;;;;;;;6.60;5.90;;;;;15.50;99024.00;;;;16521459;28;20204;-50
2022/10/09 22:27:35;;;;;;;13.40;6.90;;;;;15.40;99020.00;;;;16522832;28;20242;-50
2022/10/09 22:35:38;;;;;;;9.80;7.23;;;;;15.40;99014.00;;;;16521352;28;20799;-50
2022/10/09 22:43:42;;;;;;;8.03;6.90;;;;;15.10;99011.00;;;;16521100;28;20234;-49
2022/10/09 22:51:45;;;;;;;7.17;6.57;;;;;15.10;98999.00;;;;16520347;28;20228;-49
2022/10/09 22:59:49;;;;;;;10.20;7.87;;;;;15.00;98998.00;;;;16520468;28;20227;-50
2022/10/09 23:07:52;;;;;;;9.97;7.97;;;;;14.90;98997.00;;;;16518261;28;20241;-50
2022/10/09 23:15:55;;;;;;;11.63;7.80;;;;;15.00;98997.00;;;;16519864;28;20224;-49
2022/10/09 23:23:58;;;;;;;8.63;7.63;;;;;15.00;98984.00;;;;16517845;28;20725;-50
2022/10/09 23:32:02;;;;;;;8.80;7.90;;;;;14.00;98999.00;;;;16518221;28;20336;-50
2022/10/09 23:40:05;;;;;;;8.60;5.80;;;;;13.60;99005.00;;;;16519498;28;20237;-50
2022/10/09 23:48:09;;;;;;;7.23;6.43;;;;;13.60;99001.00;;;;16510656;28;20229;-50
2022/10/09 23:56:22;;;;;;;9.93;7.00;;;;;13.80;99008.00;;;;16513340;28;20215;-50
